createdAt,value
2022-08-17T00:00:42.598Z,23.38
2022-08-17T00:03:04.990Z,25.08
2022-08-17T00:05:36.067Z,23.33
2022-08-17T00:08:03.979Z,23.55
2022-08-17T00:10:32.416Z,22.60
2022-08-17T00:13:00.694Z,21.17
2022-08-17T00:15:27.913Z,23.40
2022-08-17T00:17:54.943Z,25.45
2022-08-17T00:20:23.443Z,25.48
2022-08-17T00:23:08.763Z,22.33
2022-08-17T00:25:36.264Z,22.08
2022-08-17T00:28:03.834Z,21.25
2022-08-17T00:30:31.126Z,23.80
2022-08-17T00:33:23.764Z,22.30
2022-08-17T00:35:52.105Z,18.33
2022-08-17T00:38:19.674Z,20.25
2022-08-17T00:40:55.841Z,20.73
2022-08-17T00:43:28.917Z,21.08
2022-08-17T00:45:56.558Z,21.92
2022-08-17T00:48:23.933Z,22.00
2022-08-17T00:50:57.701Z,23.58
2022-08-17T00:53:27.306Z,22.08
2022-08-17T00:55:54.590Z,21.77
2022-08-17T00:58:35.738Z,22.30
2022-08-17T01:01:05.313Z,25.58
2022-08-17T01:03:34.358Z,24.98
2022-08-17T01:06:03.035Z,25.35
2022-08-17T01:08:31.696Z,23.80
2022-08-17T01:11:05.386Z,20.95
2022-08-17T01:13:40.979Z,22.98
2022-08-17T01:16:26.264Z,24.67
2022-08-17T01:19:05.308Z,22.48
2022-08-17T01:21:55.410Z,22.25
2022-08-17T01:24:22.509Z,22.85
2022-08-17T01:26:49.944Z,21.85
2022-08-17T01:29:20.214Z,22.75
2022-08-17T01:31:55.659Z,24.17
2022-08-17T01:34:24.925Z,25.27
2022-08-17T01:37:03.917Z,23.35
2022-08-17T01:39:45.151Z,20.70
2022-08-17T01:42:23.904Z,23.70
2022-08-17T01:44:57.056Z,23.50
2022-08-17T01:47:24.237Z,23.02
2022-08-17T01:49:51.230Z,21.25
2022-08-17T01:52:18.954Z,19.95
2022-08-17T01:54:47.899Z,21.60
2022-08-17T01:57:15.011Z,19.38
2022-08-17T01:59:42.401Z,21.75
2022-08-17T02:02:09.392Z,25.40
2022-08-17T02:04:36.767Z,24.50
2022-08-17T02:07:03.986Z,21.65
2022-08-17T02:09:31.633Z,24.02
2022-08-17T02:12:37.312Z,23.88
2022-08-17T02:14:48.266Z,24.15
2022-08-17T02:17:15.335Z,22.40
2022-08-17T02:19:42.265Z,24.35
2022-08-17T02:22:10.332Z,26.58
2022-08-17T02:25:00.784Z,25.48
2022-08-17T02:27:25.604Z,24.95
2022-08-17T02:29:52.588Z,25.58
2022-08-17T02:32:27.727Z,27.02
2022-08-17T02:34:58.437Z,26.95
2022-08-17T02:37:26.898Z,31.17
2022-08-17T02:39:54.246Z,30.23
2022-08-17T02:42:29.220Z,24.73
2022-08-17T02:44:56.208Z,25.88
2022-08-17T02:47:24.666Z,26.40
2022-08-17T02:49:55.440Z,25.05
2022-08-17T02:52:43.003Z,29.73
2022-08-17T02:55:14.890Z,25.65
2022-08-17T02:57:42.390Z,25.23
2022-08-17T03:00:21.312Z,26.42
2022-08-17T03:02:49.746Z,28.00
2022-08-17T03:05:23.066Z,26.17
2022-08-17T03:07:50.740Z,26.95
2022-08-17T03:10:19.002Z,27.38
2022-08-17T03:12:46.967Z,27.98
2022-08-17T03:15:26.463Z,28.77
2022-08-17T03:17:54.846Z,26.25
2022-08-17T03:20:22.636Z,26.30
2022-08-17T03:22:53.543Z,27.15
2022-08-17T03:25:34.402Z,26.58
2022-08-17T03:28:02.688Z,28.00
2022-08-17T03:30:30.633Z,25.63
2022-08-17T03:33:03.066Z,25.73
2022-08-17T03:35:32.576Z,28.13
2022-08-17T03:38:01.300Z,25.70
2022-08-17T03:40:55.038Z,27.17
2022-08-17T03:43:17.658Z,24.30
2022-08-17T03:46:02.910Z,27.20
2022-08-17T03:48:49.378Z,27.35
2022-08-17T03:51:55.797Z,26.38
2022-08-17T03:54:41.764Z,25.42
2022-08-17T03:57:10.763Z,25.88
2022-08-17T03:59:39.074Z,25.70
2022-08-17T04:02:13.043Z,28.08
2022-08-17T04:04:40.441Z,28.92
2022-08-17T04:07:07.768Z,28.88
2022-08-17T04:09:36.226Z,30.90
2022-08-17T04:12:05.268Z,32.67
2022-08-17T04:14:53.521Z,31.40
2022-08-17T04:17:24.677Z,31.83
2022-08-17T04:19:53.036Z,32.40
2022-08-17T04:22:31.882Z,36.33
2022-08-17T04:25:04.800Z,37.25
2022-08-17T04:27:32.138Z,33.97
2022-08-17T04:29:59.033Z,34.15
2022-08-17T04:33:04.851Z,33.55
2022-08-17T04:35:18.253Z,33.92
2022-08-17T04:37:45.530Z,33.38
2022-08-17T04:40:31.127Z,32.90
2022-08-17T04:43:03.680Z,33.00
2022-08-17T04:45:32.217Z,31.23
2022-08-17T04:48:00.683Z,34.00
2022-08-17T04:50:27.949Z,34.05
2022-08-17T04:52:56.804Z,32.63
2022-08-17T04:55:24.361Z,32.42
2022-08-17T04:57:51.263Z,28.05
2022-08-17T05:00:18.407Z,31.20
2022-08-17T05:02:49.657Z,30.08
2022-08-17T05:05:22.273Z,30.67
2022-08-17T05:07:54.776Z,29.95
2022-08-17T05:10:26.598Z,31.00
2022-08-17T05:13:07.400Z,28.67
2022-08-17T05:15:36.798Z,28.02
2022-08-17T05:18:04.886Z,29.27
2022-08-17T05:20:32.916Z,27.10
2022-08-17T05:23:04.593Z,27.85
2022-08-17T05:25:36.181Z,29.95
2022-08-17T05:28:05.317Z,26.63
2022-08-17T05:30:34.843Z,28.65
2022-08-17T05:33:16.744Z,26.85
2022-08-17T05:35:47.707Z,27.17
2022-08-17T05:38:16.521Z,29.20
2022-08-17T05:40:43.993Z,31.00
2022-08-17T05:43:16.225Z,31.52
2022-08-17T05:45:55.362Z,31.90
2022-08-17T05:48:36.761Z,30.40
2022-08-17T05:51:12.650Z,32.17
2022-08-17T05:53:42.947Z,32.92
2022-08-17T05:56:34.512Z,33.70
2022-08-17T05:59:22.953Z,32.83
2022-08-17T06:01:58.906Z,29.95
2022-08-17T06:04:31.937Z,32.30
2022-08-17T06:07:12.720Z,33.55
2022-08-17T06:09:49.249Z,33.10
2022-08-17T06:12:40.366Z,29.75
2022-08-17T06:15:26.196Z,31.73
2022-08-17T06:18:02.091Z,30.00
2022-08-17T06:20:38.614Z,30.77
2022-08-17T06:23:10.719Z,30.85
2022-08-17T06:25:52.839Z,27.85
2022-08-17T06:28:34.378Z,27.88
2022-08-17T06:31:12.654Z,28.63
2022-08-17T06:33:40.419Z,29.48
2022-08-17T06:36:17.660Z,29.52
2022-08-17T06:39:13.387Z,24.48
2022-08-17T06:42:03.647Z,27.02
2022-08-17T06:44:42.335Z,24.83
2022-08-17T06:47:31.686Z,25.13
2022-08-17T06:50:19.526Z,25.90
2022-08-17T06:53:25.161Z,28.23
2022-08-17T06:56:09.680Z,27.27
2022-08-17T06:58:40.279Z,25.20
2022-08-17T07:01:24.965Z,23.52
2022-08-17T07:03:57.958Z,23.77
2022-08-17T07:06:33.215Z,23.33
2022-08-17T07:09:18.685Z,24.48
2022-08-17T07:12:04.495Z,23.23
2022-08-17T07:14:43.232Z,23.27
2022-08-17T07:17:17.318Z,18.17
2022-08-17T07:19:49.075Z,18.38
2022-08-17T07:22:59.624Z,20.63
2022-08-17T07:25:30.781Z,18.77
2022-08-17T07:28:02.451Z,18.52
2022-08-17T07:30:47.719Z,16.13
2022-08-17T07:33:20.363Z,15.85
2022-08-17T07:35:48.490Z,16.42
2022-08-17T07:38:24.920Z,14.57
2022-08-17T07:41:06.213Z,13.93
2022-08-17T07:43:39.293Z,14.27
2022-08-17T07:46:38.797Z,14.70
2022-08-17T07:49:12.623Z,16.27
2022-08-17T07:51:55.428Z,16.23
2022-08-17T07:54:39.488Z,16.05
2022-08-17T07:57:15.332Z,15.80
2022-08-17T08:00:03.402Z,17.00
2022-08-17T08:02:43.752Z,17.30
2022-08-17T08:05:29.938Z,16.23
2022-08-17T08:08:42.399Z,15.55
2022-08-17T08:11:15.210Z,15.50
2022-08-17T08:13:45.694Z,15.05
2022-08-17T08:16:27.141Z,17.90
2022-08-17T08:18:58.333Z,16.90
2022-08-17T08:21:50.438Z,15.10
2022-08-17T08:24:36.703Z,16.23
2022-08-17T08:27:39.199Z,15.23
2022-08-17T08:30:14.522Z,14.18
2022-08-17T08:32:57.220Z,14.40
2022-08-17T08:35:50.582Z,13.07
2022-08-17T08:38:23.572Z,12.65
2022-08-17T08:40:50.655Z,10.88
2022-08-17T08:43:38.820Z,9.23
2022-08-17T08:46:19.617Z,10.50
2022-08-17T08:49:12.086Z,10.68
2022-08-17T08:51:51.658Z,9.73
2022-08-17T08:54:39.002Z,9.95
2022-08-17T09:00:22.671Z,8.07
2022-08-17T09:03:14.543Z,9.18
2022-08-17T09:06:37.840Z,7.60
2022-08-17T09:09:30.715Z,8.35
2022-08-17T09:12:14.013Z,8.15
2022-08-17T09:14:51.545Z,8.75
2022-08-17T09:17:39.008Z,8.25
2022-08-17T09:20:27.935Z,7.85
2022-08-17T09:23:08.065Z,7.38
2022-08-17T09:25:49.736Z,8.45
2022-08-17T09:28:24.185Z,7.97
2022-08-17T09:30:56.152Z,8.38
2022-08-17T09:33:29.056Z,7.45
2022-08-17T09:36:02.392Z,7.57
2022-08-17T09:39:04.083Z,7.40
2022-08-17T09:41:56.195Z,7.72
2022-08-17T09:44:48.792Z,6.82
2022-08-17T09:47:30.579Z,7.28
2022-08-17T09:51:03.634Z,7.63
2022-08-17T09:53:09.631Z,7.28
2022-08-17T09:56:13.626Z,7.25
2022-08-17T09:59:05.658Z,7.15
2022-08-17T10:01:58.046Z,7.10
2022-08-17T10:04:32.717Z,7.20
2022-08-17T10:07:07.484Z,7.43
2022-08-17T10:09:55.818Z,6.72
2022-08-17T10:12:38.959Z,6.90
2022-08-17T10:15:33.513Z,7.45
2022-08-17T10:18:25.465Z,7.45
2022-08-17T10:21:27.747Z,7.18
2022-08-17T10:24:31.171Z,7.18
2022-08-17T10:27:01.180Z,7.18
2022-08-17T10:29:38.258Z,7.60
2022-08-17T10:32:46.187Z,7.22
2022-08-17T10:35:33.028Z,6.63
2022-08-17T10:38:15.447Z,6.22
2022-08-17T10:41:38.212Z,5.72
2022-08-17T10:44:38.353Z,6.78
2022-08-17T10:47:09.626Z,7.72
2022-08-17T10:49:47.977Z,7.53
2022-08-17T10:52:26.231Z,7.47
2022-08-17T10:54:58.106Z,7.15
2022-08-17T10:57:31.844Z,7.25
2022-08-17T11:00:01.036Z,8.00
2022-08-17T11:02:51.245Z,7.05
2022-08-17T11:05:41.491Z,8.00
2022-08-17T11:08:32.232Z,6.95
2022-08-17T11:11:17.854Z,7.10
2022-08-17T11:14:24.039Z,7.07
2022-08-17T11:17:09.295Z,8.20
2022-08-17T11:20:09.049Z,7.97
2022-08-17T11:23:10.163Z,7.38
2022-08-17T11:25:47.087Z,8.50
2022-08-17T11:28:17.970Z,8.68
2022-08-17T11:30:49.748Z,8.15
2022-08-17T11:33:36.919Z,8.15
2022-08-17T11:36:30.419Z,8.13
2022-08-17T11:39:23.115Z,8.20
2022-08-17T11:42:05.878Z,7.85
2022-08-17T11:44:57.908Z,8.32
2022-08-17T11:48:25.960Z,8.07
2022-08-17T11:51:17.888Z,8.20
2022-08-17T11:53:45.891Z,8.57
2022-08-17T11:56:50.876Z,8.48
2022-08-17T11:59:32.902Z,8.00
2022-08-17T12:02:02.223Z,8.25
2022-08-17T12:04:34.560Z,8.00
2022-08-17T12:07:18.506Z,7.00
2022-08-17T12:09:49.248Z,6.80
2022-08-17T12:12:20.135Z,6.90
2022-08-17T12:15:11.355Z,6.40
2022-08-17T12:17:42.720Z,6.07
2022-08-17T12:20:19.773Z,6.07
2022-08-17T12:23:04.472Z,6.20
2022-08-17T12:25:34.112Z,6.00
2022-08-17T12:28:05.990Z,6.32
2022-08-17T12:30:35.687Z,6.30
2022-08-17T12:33:02.881Z,5.72
2022-08-17T12:35:36.295Z,5.53
2022-08-17T12:38:32.665Z,5.65
2022-08-17T12:40:57.974Z,6.32
2022-08-17T12:43:31.149Z,6.35
2022-08-17T12:46:13.500Z,6.00
2022-08-17T12:48:58.799Z,6.13
2022-08-17T12:51:29.016Z,5.30
2022-08-17T12:53:56.266Z,5.00
2022-08-17T12:56:23.334Z,5.25
2022-08-17T12:58:55.600Z,5.00
2022-08-17T13:01:25.112Z,5.40
2022-08-17T13:03:55.140Z,5.85
2022-08-17T13:06:32.144Z,5.40
2022-08-17T13:09:12.209Z,6.22
2022-08-17T13:11:51.365Z,5.90
2022-08-17T13:14:19.148Z,6.15
2022-08-17T13:16:52.774Z,4.78
2022-08-17T13:19:38.855Z,5.45
2022-08-17T13:22:11.027Z,5.88
2022-08-17T13:24:38.773Z,5.38
2022-08-17T13:27:09.897Z,5.47
2022-08-17T13:29:39.845Z,5.70
2022-08-17T13:32:12.969Z,6.07
2022-08-17T13:35:14.198Z,5.25
2022-08-17T13:37:35.606Z,6.22
2022-08-17T13:40:11.452Z,6.13
2022-08-17T13:42:55.648Z,5.50
2022-08-17T13:45:36.791Z,5.70
2022-08-17T13:48:11.128Z,5.63
2022-08-17T13:51:15.392Z,5.63
2022-08-17T13:53:42.298Z,5.95
2022-08-17T13:56:37.983Z,5.72
2022-08-17T13:59:53.239Z,6.35
2022-08-17T14:02:20.817Z,5.93
2022-08-17T14:04:48.685Z,6.00
2022-08-17T14:07:16.070Z,5.90
2022-08-17T14:09:52.036Z,5.70
2022-08-17T14:12:24.976Z,5.97
2022-08-17T14:14:54.892Z,6.35
2022-08-17T14:17:23.384Z,6.43
2022-08-17T14:19:50.989Z,5.88
2022-08-17T14:22:24.008Z,6.22
2022-08-17T14:24:54.298Z,5.70
2022-08-17T14:27:21.642Z,5.90
2022-08-17T14:29:48.863Z,6.57
2022-08-17T14:32:26.735Z,6.30
2022-08-17T14:34:56.708Z,5.93
2022-08-17T14:37:26.312Z,6.90
2022-08-17T14:39:58.562Z,7.28
2022-08-17T14:42:27.744Z,6.38
2022-08-17T14:44:56.206Z,6.38
2022-08-17T14:47:23.088Z,6.53
2022-08-17T14:49:50.045Z,6.55
2022-08-17T14:52:21.504Z,6.88
2022-08-17T14:54:51.287Z,6.40
2022-08-17T14:57:24.612Z,6.43
2022-08-17T15:00:01.689Z,6.18
2022-08-17T15:02:29.958Z,6.57
2022-08-17T15:05:05.482Z,6.35
2022-08-17T15:07:32.549Z,6.68
2022-08-17T15:10:01.338Z,6.78
2022-08-17T15:12:33.211Z,6.38
2022-08-17T15:15:04.568Z,6.45
2022-08-17T15:17:44.677Z,6.53
2022-08-17T15:20:16.751Z,6.57
2022-08-17T15:22:45.098Z,6.45
2022-08-17T15:25:13.086Z,6.18
2022-08-17T15:27:40.400Z,6.53
2022-08-17T15:30:10.033Z,5.80
2022-08-17T15:32:40.575Z,6.53
2022-08-17T15:35:11.723Z,6.35
2022-08-17T15:37:40.182Z,6.32
2022-08-17T15:40:09.070Z,6.15
2022-08-17T15:42:36.646Z,6.15
2022-08-17T15:45:07.112Z,6.25
2022-08-17T15:47:34.261Z,6.57
2022-08-17T15:50:01.415Z,7.28
2022-08-17T15:52:31.892Z,7.05
2022-08-17T15:55:01.075Z,6.55
2022-08-17T15:57:28.263Z,6.53
2022-08-17T15:59:58.476Z,7.30
2022-08-17T16:03:14.736Z,7.25
2022-08-17T16:05:24.041Z,6.55
2022-08-17T16:07:52.485Z,7.20
2022-08-17T16:10:19.794Z,6.93
2022-08-17T16:12:48.577Z,6.95
2022-08-17T16:15:16.220Z,7.65
2022-08-17T16:17:43.629Z,6.57
2022-08-17T16:20:20.109Z,7.18
2022-08-17T16:22:49.514Z,6.40
2022-08-17T16:25:20.149Z,7.43
2022-08-17T16:27:50.346Z,6.80
2022-08-17T16:30:18.208Z,7.93
2022-08-17T16:32:46.243Z,6.93
2022-08-17T16:35:17.426Z,8.30
2022-08-17T16:37:45.674Z,7.50
2022-08-17T16:40:15.467Z,8.70
2022-08-17T16:42:43.302Z,7.90
2022-08-17T16:45:14.634Z,7.40
2022-08-17T16:47:41.989Z,8.77
2022-08-17T16:50:11.684Z,8.65
2022-08-17T16:52:39.854Z,8.63
2022-08-17T16:55:09.370Z,8.82
2022-08-17T16:57:47.400Z,8.93
2022-08-17T17:00:19.608Z,8.50
2022-08-17T17:02:48.357Z,8.15
2022-08-17T17:05:22.160Z,7.72
2022-08-17T17:08:01.007Z,8.63
2022-08-17T17:10:37.458Z,8.38
2022-08-17T17:13:12.399Z,8.70
2022-08-17T17:15:50.457Z,8.30
2022-08-17T17:18:20.920Z,8.77
2022-08-17T17:20:55.836Z,9.02
2022-08-17T17:23:55.105Z,9.27
2022-08-17T17:26:40.299Z,8.77
2022-08-17T17:29:47.146Z,8.68
2022-08-17T17:32:32.389Z,9.30
2022-08-17T17:35:09.966Z,8.35
2022-08-17T17:37:39.892Z,8.77
2022-08-17T17:40:15.155Z,8.50
2022-08-17T17:42:44.046Z,9.10
2022-08-17T17:45:20.124Z,8.93
2022-08-17T17:47:47.478Z,8.15
2022-08-17T17:50:17.855Z,8.65
2022-08-17T17:53:02.988Z,9.23
2022-08-17T17:55:33.233Z,8.55
2022-08-17T17:58:19.639Z,9.00
2022-08-17T18:00:54.877Z,9.02
2022-08-17T18:03:51.010Z,9.05
2022-08-17T18:06:33.989Z,9.05
2022-08-17T18:09:08.679Z,8.73
2022-08-17T18:11:51.573Z,8.68
2022-08-17T18:14:30.586Z,9.85
2022-08-17T18:16:59.674Z,9.38
2022-08-17T18:19:28.224Z,9.18
2022-08-17T18:22:14.010Z,8.93
2022-08-17T18:24:45.710Z,10.68
2022-08-17T18:27:23.315Z,10.65
2022-08-17T18:29:53.487Z,10.70
2022-08-17T18:32:25.890Z,10.52
2022-08-17T18:35:01.186Z,11.13
2022-08-17T18:37:33.996Z,10.20
2022-08-17T18:40:16.432Z,10.98
2022-08-17T18:42:58.307Z,11.10
2022-08-17T18:45:49.182Z,11.77
2022-08-17T18:48:48.748Z,11.68
2022-08-17T18:51:39.701Z,12.18
2022-08-17T18:54:21.196Z,13.23
2022-08-17T18:56:49.918Z,17.63
2022-08-17T18:59:27.809Z,15.90
2022-08-17T19:02:22.058Z,16.20
2022-08-17T19:05:02.110Z,17.67
2022-08-17T19:07:33.195Z,16.73
2022-08-17T19:10:23.836Z,16.33
2022-08-17T19:13:01.125Z,16.55
2022-08-17T19:15:35.843Z,17.33
2022-08-17T19:18:16.268Z,16.10
2022-08-17T19:20:56.216Z,15.85
2022-08-17T19:23:31.563Z,15.63
2022-08-17T19:26:01.682Z,13.77
2022-08-17T19:28:38.248Z,15.18
2022-08-17T19:31:28.691Z,16.23
2022-08-17T19:33:57.081Z,15.40
2022-08-17T19:36:43.002Z,15.57
2022-08-17T19:39:38.610Z,17.23
2022-08-17T19:42:31.112Z,19.25
2022-08-17T19:45:20.701Z,19.15
2022-08-17T19:48:09.399Z,19.10
2022-08-17T19:50:58.939Z,22.92
2022-08-17T19:54:04.237Z,25.73
2022-08-17T19:56:49.037Z,16.98
2022-08-17T19:59:18.589Z,17.00
2022-08-17T20:02:01.290Z,15.77
2022-08-17T20:04:31.934Z,15.93
2022-08-17T20:07:06.153Z,15.88
2022-08-17T20:09:44.548Z,14.95
2022-08-17T20:12:19.287Z,15.95
2022-08-17T20:14:57.258Z,16.50
2022-08-17T20:17:34.481Z,15.55
2022-08-17T20:20:26.017Z,15.93
2022-08-17T20:23:15.905Z,16.52
2022-08-17T20:26:20.273Z,15.45
2022-08-17T20:29:13.861Z,16.67
2022-08-17T20:31:51.834Z,16.85
2022-08-17T20:34:30.890Z,16.65
2022-08-17T20:37:44.255Z,16.13
2022-08-17T20:40:19.273Z,17.05
2022-08-17T20:42:46.515Z,17.45
2022-08-17T20:45:26.200Z,16.10
2022-08-17T20:48:35.079Z,15.52
2022-08-17T20:50:57.614Z,16.08
2022-08-17T20:53:49.551Z,18.17
2022-08-17T20:56:44.392Z,18.75
2022-08-17T20:59:20.473Z,17.75
2022-08-17T21:02:08.910Z,18.52
2022-08-17T21:04:50.321Z,19.23
2022-08-17T21:07:25.600Z,19.13
2022-08-17T21:09:52.770Z,19.15
2022-08-17T21:12:42.463Z,18.92
2022-08-17T21:15:27.442Z,18.83
2022-08-17T21:17:59.178Z,18.65
2022-08-17T21:20:32.538Z,17.70
2022-08-17T21:23:18.502Z,18.13
2022-08-17T21:25:54.462Z,18.20
2022-08-17T21:28:34.512Z,17.95
2022-08-17T21:31:08.981Z,17.42
2022-08-17T21:33:38.684Z,17.95
2022-08-17T21:36:16.039Z,17.63
2022-08-17T21:38:51.540Z,18.02
2022-08-17T21:41:27.406Z,17.45
2022-08-17T21:44:10.937Z,16.67
2022-08-17T21:46:43.015Z,17.70
2022-08-17T21:49:19.445Z,18.80
2022-08-17T21:51:54.159Z,17.15
2022-08-17T21:54:38.682Z,17.65
2022-08-17T21:57:16.751Z,18.77
2022-08-17T21:59:44.686Z,17.77
2022-08-17T22:02:26.982Z,19.00
2022-08-17T22:05:13.238Z,18.40
2022-08-17T22:07:50.941Z,19.20
2022-08-17T22:10:38.690Z,20.42
2022-08-17T22:13:17.018Z,18.67
2022-08-17T22:16:28.088Z,19.98
2022-08-17T22:18:58.913Z,19.52
2022-08-17T22:21:26.818Z,18.98
2022-08-17T22:24:04.840Z,20.80
2022-08-17T22:27:02.960Z,20.02
2022-08-17T22:29:57.653Z,20.10
2022-08-17T22:32:37.327Z,20.00
2022-08-17T22:35:26.257Z,18.75
2022-08-17T22:37:53.410Z,19.25
2022-08-17T22:40:32.495Z,18.23
2022-08-17T22:43:03.445Z,19.80
2022-08-17T22:45:31.249Z,18.60
2022-08-17T22:48:02.156Z,20.33
2022-08-17T22:50:31.632Z,20.83
2022-08-17T22:53:30.337Z,20.52
2022-08-17T22:56:16.693Z,19.67
2022-08-17T22:59:11.008Z,18.30
2022-08-17T23:01:39.616Z,18.05
2022-08-17T23:04:08.297Z,18.92
2022-08-17T23:06:37.086Z,18.10
2022-08-17T23:09:06.467Z,18.85
2022-08-17T23:11:49.076Z,18.92
2022-08-17T23:14:19.723Z,20.27
2022-08-17T23:16:47.707Z,18.60
2022-08-17T23:19:18.028Z,20.85
2022-08-17T23:21:46.085Z,22.48
2022-08-17T23:24:24.272Z,22.00
2022-08-17T23:26:52.327Z,21.67
2022-08-17T23:29:21.386Z,21.55
2022-08-17T23:31:49.678Z,22.55
2022-08-17T23:34:18.544Z,22.85
2022-08-17T23:36:54.957Z,23.23
2022-08-17T23:39:24.493Z,24.50
2022-08-17T23:41:58.193Z,21.92
2022-08-17T23:44:26.513Z,23.20
2022-08-17T23:46:53.990Z,23.52
2022-08-17T23:49:21.345Z,22.88
2022-08-17T23:51:49.430Z,23.33
2022-08-17T23:54:33.752Z,25.10
2022-08-17T23:57:02.359Z,23.13
2022-08-17T23:59:29.339Z,23.38
